sensor_id;sensor_type;location;lat;lon;timestamp;pressure;altitude;pressure_sealevel;temperature;humidity
75420;BME280;63998;52.488;13.428;2022-11-21T00:00:51;100028.66;;;0.09;74.56
75420;BME280;63998;52.488;13.428;2022-11-21T00:03:16;100030.06;;;-0.01;74.67
75420;BME280;63998;52.488;13.428;2022-11-21T00:05:44;100024.53;;;0.14;74.47
75420;BME280;63998;52.488;13.428;2022-11-21T00:08:12;100021.97;;;0.12;74.83
75420;BME280;63998;52.488;13.428;2022-11-21T00:10:38;100016.41;;;0.25;75.08
75420;BME280;63998;52.488;13.428;2022-11-21T00:13:07;100014.97;;;0.33;75.38
75420;BME280;63998;52.488;13.428;2022-11-21T00:15:41;100014.00;;;0.30;74.40
75420;BME280;63998;52.488;13.428;2022-11-21T00:18:06;99998.00;;;0.35;73.84
75420;BME280;63998;52.488;13.428;2022-11-21T00:20:31;99997.00;;;0.59;74.82
75420;BME280;63998;52.488;13.428;2022-11-21T00:22:59;99993.91;;;0.69;75.06
75420;BME280;63998;52.488;13.428;2022-11-21T00:25:27;99993.59;;;0.88;75.54
75420;BME280;63998;52.488;13.428;2022-11-21T00:27:53;99993.34;;;0.79;73.78
75420;BME280;63998;52.488;13.428;2022-11-21T00:30:18;99986.28;;;0.70;72.72
75420;BME280;63998;52.488;13.428;2022-11-21T00:32:43;99988.53;;;0.60;72.52
75420;BME280;63998;52.488;13.428;2022-11-21T00:35:09;99984.28;;;0.60;73.04
75420;BME280;63998;52.488;13.428;2022-11-21T00:37:34;99981.03;;;0.66;74.31
75420;BME280;63998;52.488;13.428;2022-11-21T00:39:59;99977.09;;;0.77;73.67
75420;BME280;63998;52.488;13.428;2022-11-21T00:42:30;99976.94;;;0.71;73.39
75420;BME280;63998;52.488;13.428;2022-11-21T00:44:55;99973.56;;;0.72;73.29
75420;BME280;63998;52.488;13.428;2022-11-21T00:47:22;99974.78;;;0.85;73.33
75420;BME280;63998;52.488;13.428;2022-11-21T00:49:52;99973.97;;;0.87;73.42
75420;BME280;63998;52.488;13.428;2022-11-21T00:52:18;99975.78;;;0.91;73.11
75420;BME280;63998;52.488;13.428;2022-11-21T00:54:43;99970.78;;;0.94;73.00
75420;BME280;63998;52.488;13.428;2022-11-21T00:57:08;99972.06;;;0.80;72.55
75420;BME280;63998;52.488;13.428;2022-11-21T00:59:36;99975.53;;;0.82;73.27
75420;BME280;63998;52.488;13.428;2022-11-21T01:02:04;99971.69;;;0.96;73.23
75420;BME280;63998;52.488;13.428;2022-11-21T01:04:31;99959.97;;;1.04;74.24
75420;BME280;63998;52.488;13.428;2022-11-21T01:06:59;99954.03;;;1.05;73.04
75420;BME280;63998;52.488;13.428;2022-11-21T01:09:25;99952.16;;;0.98;72.07
75420;BME280;63998;52.488;13.428;2022-11-21T01:11:50;99958.91;;;0.66;72.04
75420;BME280;63998;52.488;13.428;2022-11-21T01:14:15;99960.69;;;0.69;72.20
75420;BME280;63998;52.488;13.428;2022-11-21T01:16:41;99949.53;;;0.67;72.75
75420;BME280;63998;52.488;13.428;2022-11-21T01:19:06;99940.97;;;0.65;72.57
75420;BME280;63998;52.488;13.428;2022-11-21T01:21:36;99940.97;;;0.65;72.80
75420;BME280;63998;52.488;13.428;2022-11-21T01:24:02;99947.09;;;0.70;73.17
75420;BME280;63998;52.488;13.428;2022-11-21T01:26:31;99952.81;;;0.63;73.32
75420;BME280;63998;52.488;13.428;2022-11-21T01:28:57;99944.53;;;0.70;73.64
75420;BME280;63998;52.488;13.428;2022-11-21T01:31:25;99945.50;;;0.75;73.46
75420;BME280;63998;52.488;13.428;2022-11-21T01:33:51;99946.94;;;0.95;74.81
75420;BME280;63998;52.488;13.428;2022-11-21T01:36:19;99943.63;;;0.98;73.96
75420;BME280;63998;52.488;13.428;2022-11-21T01:38:47;99939.03;;;1.18;74.37
75420;BME280;63998;52.488;13.428;2022-11-21T01:41:19;99935.22;;;1.35;75.67
75420;BME280;63998;52.488;13.428;2022-11-21T01:43:45;99941.22;;;1.37;74.74
75420;BME280;63998;52.488;13.428;2022-11-21T01:46:14;99936.09;;;1.37;73.93
75420;BME280;63998;52.488;13.428;2022-11-21T01:48:45;99941.53;;;1.49;74.91
75420;BME280;63998;52.488;13.428;2022-11-21T01:59:50;99934.66;;;1.81;74.29
75420;BME280;63998;52.488;13.428;2022-11-21T02:02:20;99935.84;;;1.59;72.49
75420;BME280;63998;52.488;13.428;2022-11-21T02:04:51;99919.97;;;1.06;71.36
75420;BME280;63998;52.488;13.428;2022-11-21T02:07:18;99928.03;;;0.90;71.99
75420;BME280;63998;52.488;13.428;2022-11-21T02:09:49;99929.19;;;0.70;72.37
75420;BME280;63998;52.488;13.428;2022-11-21T02:12:22;99936.13;;;0.74;73.63
75420;BME280;63998;52.488;13.428;2022-11-21T02:14:52;99937.34;;;0.57;73.10
75420;BME280;63998;52.488;13.428;2022-11-21T02:17:18;99944.44;;;0.37;73.44
75420;BME280;63998;52.488;13.428;2022-11-21T02:19:51;99939.44;;;0.42;74.00
75420;BME280;63998;52.488;13.428;2022-11-21T02:25:23;99925.06;;;0.74;75.53
75420;BME280;63998;52.488;13.428;2022-11-21T02:27:54;99927.28;;;0.93;75.05
75420;BME280;63998;52.488;13.428;2022-11-21T02:30:22;99918.41;;;0.80;74.57
75420;BME280;63998;52.488;13.428;2022-11-21T02:32:49;99919.06;;;0.73;73.87
75420;BME280;63998;52.488;13.428;2022-11-21T02:35:16;99909.78;;;0.77;74.26
75420;BME280;63998;52.488;13.428;2022-11-21T02:37:46;99914.34;;;0.88;73.48
75420;BME280;63998;52.488;13.428;2022-11-21T02:40:18;99908.34;;;1.18;76.09
75420;BME280;63998;52.488;13.428;2022-11-21T02:42:58;99904.75;;;1.44;75.90
75420;BME280;63998;52.488;13.428;2022-11-21T02:45:32;99897.38;;;1.56;75.62
75420;BME280;63998;52.488;13.428;2022-11-21T02:48:02;99889.94;;;1.67;75.57
75420;BME280;63998;52.488;13.428;2022-11-21T02:50:30;99888.41;;;1.75;74.50
75420;BME280;63998;52.488;13.428;2022-11-21T02:52:56;99888.63;;;1.83;74.64
75420;BME280;63998;52.488;13.428;2022-11-21T02:55:25;99887.91;;;1.90;74.84
75420;BME280;63998;52.488;13.428;2022-11-21T02:57:51;99884.53;;;1.91;73.57
75420;BME280;63998;52.488;13.428;2022-11-21T03:00:16;99885.50;;;1.96;74.01
75420;BME280;63998;52.488;13.428;2022-11-21T03:02:42;99887.19;;;1.95;73.47
75420;BME280;63998;52.488;13.428;2022-11-21T03:05:08;99888.06;;;1.96;73.31
75420;BME280;63998;52.488;13.428;2022-11-21T03:07:37;99888.06;;;1.96;73.24
75420;BME280;63998;52.488;13.428;2022-11-21T03:10:03;99884.59;;;1.94;73.07
75420;BME280;63998;52.488;13.428;2022-11-21T03:12:29;99872.59;;;1.91;72.86
75420;BME280;63998;52.488;13.428;2022-11-21T03:14:59;99876.72;;;1.86;72.65
75420;BME280;63998;52.488;13.428;2022-11-21T03:17:24;99877.47;;;1.80;72.78
75420;BME280;63998;52.488;13.428;2022-11-21T03:19:52;99871.66;;;1.88;73.78
75420;BME280;63998;52.488;13.428;2022-11-21T03:22:17;99869.16;;;1.91;72.95
75420;BME280;63998;52.488;13.428;2022-11-21T03:24:42;99864.03;;;1.91;72.97
75420;BME280;63998;52.488;13.428;2022-11-21T03:27:10;99860.66;;;1.92;73.24
75420;BME280;63998;52.488;13.428;2022-11-21T03:29:35;99873.47;;;1.92;72.42
75420;BME280;63998;52.488;13.428;2022-11-21T03:32:01;99874.16;;;1.85;72.31
75420;BME280;63998;52.488;13.428;2022-11-21T03:34:29;99872.47;;;1.87;72.57
75420;BME280;63998;52.488;13.428;2022-11-21T03:36:54;99871.97;;;2.01;73.84
75420;BME280;63998;52.488;13.428;2022-11-21T03:39:22;99877.16;;;2.04;73.82
75420;BME280;63998;52.488;13.428;2022-11-21T03:41:49;99875.34;;;2.00;72.82
75420;BME280;63998;52.488;13.428;2022-11-21T03:44:15;99875.56;;;2.09;73.39
75420;BME280;63998;52.488;13.428;2022-11-21T03:46:44;99873.00;;;2.11;73.39
75420;BME280;63998;52.488;13.428;2022-11-21T03:49:11;99891.91;;;2.16;72.80
75420;BME280;63998;52.488;13.428;2022-11-21T03:51:37;99886.88;;;2.19;73.51
75420;BME280;63998;52.488;13.428;2022-11-21T03:54:03;99893.22;;;1.99;72.68
75420;BME280;63998;52.488;13.428;2022-11-21T03:56:29;99893.13;;;1.57;70.83
75420;BME280;63998;52.488;13.428;2022-11-21T03:58:54;99890.91;;;1.36;72.07
75420;BME280;63998;52.488;13.428;2022-11-21T04:01:20;99897.00;;;1.41;73.37
75420;BME280;63998;52.488;13.428;2022-11-21T04:03:46;99901.41;;;1.47;73.86
75420;BME280;63998;52.488;13.428;2022-11-21T04:06:13;99897.06;;;1.44;73.42
75420;BME280;63998;52.488;13.428;2022-11-21T04:08:39;99900.22;;;1.34;72.75
75420;BME280;63998;52.488;13.428;2022-11-21T04:11:07;99904.47;;;1.33;73.02
75420;BME280;63998;52.488;13.428;2022-11-21T04:13:33;99896.84;;;1.36;73.88
75420;BME280;63998;52.488;13.428;2022-11-21T04:16:00;99896.91;;;1.38;73.47
75420;BME280;63998;52.488;13.428;2022-11-21T04:18:28;99896.38;;;1.17;73.30
75420;BME280;63998;52.488;13.428;2022-11-21T04:21:00;99891.22;;;1.15;73.12
75420;BME280;63998;52.488;13.428;2022-11-21T04:23:26;99899.84;;;1.19;73.17
75420;BME280;63998;52.488;13.428;2022-11-21T04:25:51;99895.38;;;1.12;73.59
75420;BME280;63998;52.488;13.428;2022-11-21T04:28:20;99896.59;;;1.26;74.65
75420;BME280;63998;52.488;13.428;2022-11-21T04:30:48;99895.16;;;1.37;74.41
75420;BME280;63998;52.488;13.428;2022-11-21T04:33:15;99897.22;;;1.50;74.25
75420;BME280;63998;52.488;13.428;2022-11-21T04:35:42;99894.13;;;1.63;74.82
75420;BME280;63998;52.488;13.428;2022-11-21T04:38:11;99898.66;;;1.75;74.63
75420;BME280;63998;52.488;13.428;2022-11-21T04:40:39;99898.81;;;1.81;74.42
75420;BME280;63998;52.488;13.428;2022-11-21T04:43:04;99903.16;;;1.84;74.17
75420;BME280;63998;52.488;13.428;2022-11-21T04:45:32;99894.84;;;1.94;73.95
75420;BME280;63998;52.488;13.428;2022-11-21T04:48:00;99901.81;;;2.01;73.86
75420;BME280;63998;52.488;13.428;2022-11-21T04:50:25;99895.00;;;2.01;73.63
75420;BME280;63998;52.488;13.428;2022-11-21T04:52:52;99903.56;;;2.02;73.44
75420;BME280;63998;52.488;13.428;2022-11-21T04:55:19;99905.38;;;2.06;73.68
75420;BME280;63998;52.488;13.428;2022-11-21T04:57:45;99894.38;;;2.10;73.75
75420;BME280;63998;52.488;13.428;2022-11-21T05:00:15;99895.47;;;2.21;73.79
75420;BME280;63998;52.488;13.428;2022-11-21T05:02:41;99894.63;;;2.24;73.45
75420;BME280;63998;52.488;13.428;2022-11-21T05:05:06;99888.66;;;2.23;72.95
75420;BME280;63998;52.488;13.428;2022-11-21T05:07:32;99894.75;;;2.28;73.09
75420;BME280;63998;52.488;13.428;2022-11-21T05:09:59;99892.19;;;2.28;73.10
75420;BME280;63998;52.488;13.428;2022-11-21T05:12:25;99893.78;;;2.23;71.63
75420;BME280;63998;52.488;13.428;2022-11-21T05:15:09;99897.94;;;2.18;71.60
75420;BME280;63998;52.488;13.428;2022-11-21T05:17:35;99894.47;;;2.16;72.16
75420;BME280;63998;52.488;13.428;2022-11-21T05:20:03;99898.78;;;2.17;71.77
75420;BME280;63998;52.488;13.428;2022-11-21T05:22:30;99900.44;;;2.15;71.68
75420;BME280;63998;52.488;13.428;2022-11-21T05:24:56;99907.22;;;2.13;71.03
75420;BME280;63998;52.488;13.428;2022-11-21T05:27:21;99908.13;;;2.15;72.12
75420;BME280;63998;52.488;13.428;2022-11-21T05:29:49;99905.72;;;2.23;72.01
75420;BME280;63998;52.488;13.428;2022-11-21T05:32:17;99905.63;;;2.18;71.79
75420;BME280;63998;52.488;13.428;2022-11-21T05:34:42;99909.09;;;2.20;72.33
75420;BME280;63998;52.488;13.428;2022-11-21T05:37:10;99895.47;;;2.21;72.01
75420;BME280;63998;52.488;13.428;2022-11-21T05:39:35;99907.56;;;2.28;72.41
75420;BME280;63998;52.488;13.428;2022-11-21T05:42:03;99903.38;;;2.32;72.45
75420;BME280;63998;52.488;13.428;2022-11-21T05:44:29;99906.66;;;2.26;71.15
75420;BME280;63998;52.488;13.428;2022-11-21T05:46:54;99898.88;;;2.22;71.00
75420;BME280;63998;52.488;13.428;2022-11-21T05:49:22;99898.78;;;2.17;71.26
75420;BME280;63998;52.488;13.428;2022-11-21T05:51:49;99889.41;;;2.17;71.16
75420;BME280;63998;52.488;13.428;2022-11-21T05:54:15;99896.09;;;2.12;70.46
75420;BME280;63998;52.488;13.428;2022-11-21T05:56:41;99891.66;;;2.04;70.38
75420;BME280;63998;52.488;13.428;2022-11-21T05:59:09;99888.38;;;2.09;72.22
75420;BME280;63998;52.488;13.428;2022-11-21T06:01:35;99891.06;;;2.15;71.99
75420;BME280;63998;52.488;13.428;2022-11-21T06:04:19;99893.50;;;2.11;70.61
75420;BME280;63998;52.488;13.428;2022-11-21T06:06:44;99898.63;;;2.11;71.11
75420;BME280;63998;52.488;13.428;2022-11-21T06:09:09;99891.91;;;2.16;71.94
75420;BME280;63998;52.488;13.428;2022-11-21T06:11:35;99904.03;;;2.23;72.47
75420;BME280;63998;52.488;13.428;2022-11-21T06:14:00;99903.03;;;2.16;71.35
75420;BME280;63998;52.488;13.428;2022-11-21T06:16:25;99909.28;;;2.29;72.32
75420;BME280;63998;52.488;13.428;2022-11-21T06:18:51;99897.31;;;2.28;71.89
75420;BME280;63998;52.488;13.428;2022-11-21T06:21:19;99905.72;;;2.21;71.53
75420;BME280;63998;52.488;13.428;2022-11-21T06:23:50;99898.91;;;2.23;71.49
75420;BME280;63998;52.488;13.428;2022-11-21T06:26:18;99901.44;;;2.22;71.62
75420;BME280;63998;52.488;13.428;2022-11-21T06:28:45;99907.22;;;2.13;71.46
75420;BME280;63998;52.488;13.428;2022-11-21T06:31:13;99903.75;;;2.11;71.85
75420;BME280;63998;52.488;13.428;2022-11-21T06:33:39;99898.69;;;2.14;71.73
75420;BME280;63998;52.488;13.428;2022-11-21T06:36:10;99903.78;;;2.12;71.86
75420;BME280;63998;52.488;13.428;2022-11-21T06:38:36;99898.63;;;2.11;71.95
75420;BME280;63998;52.488;13.428;2022-11-21T06:41:13;99907.44;;;2.22;73.06
75420;BME280;63998;52.488;13.428;2022-11-21T06:43:40;99902.31;;;2.22;73.37
75420;BME280;63998;52.488;13.428;2022-11-21T06:46:08;99905.94;;;2.32;73.13
75420;BME280;63998;52.488;13.428;2022-11-21T06:48:34;99911.13;;;2.36;73.38
75420;BME280;63998;52.488;13.428;2022-11-21T06:51:07;99909.44;;;2.37;73.15
75420;BME280;63998;52.488;13.428;2022-11-21T06:53:33;99909.47;;;2.38;72.60
75420;BME280;63998;52.488;13.428;2022-11-21T06:56:00;99906.84;;;2.34;73.27
75420;BME280;63998;52.488;13.428;2022-11-21T06:58:25;99910.41;;;2.42;73.20
75420;BME280;63998;52.488;13.428;2022-11-21T07:00:54;99914.75;;;2.44;73.30
75420;BME280;63998;52.488;13.428;2022-11-21T07:03:20;99923.91;;;2.33;71.69
75420;BME280;63998;52.488;13.428;2022-11-21T07:05:47;99929.72;;;2.26;71.60
75420;BME280;63998;52.488;13.428;2022-11-21T07:08:12;99923.63;;;2.21;71.52
75420;BME280;63998;52.488;13.428;2022-11-21T07:10:37;99933.75;;;2.15;70.80
75420;BME280;63998;52.488;13.428;2022-11-21T07:13:05;99938.84;;;2.15;71.28
75420;BME280;63998;52.488;13.428;2022-11-21T07:15:47;99940.22;;;2.01;70.80
75420;BME280;63998;52.488;13.428;2022-11-21T07:18:15;99937.63;;;1.98;71.31
75420;BME280;63998;52.488;13.428;2022-11-21T07:20:41;99946.84;;;1.91;71.71
75420;BME280;63998;52.488;13.428;2022-11-21T07:23:09;99945.91;;;1.88;71.69
75420;BME280;63998;52.488;13.428;2022-11-21T07:25:37;99953.53;;;1.86;72.61
75420;BME280;63998;52.488;13.428;2022-11-21T07:28:04;99952.63;;;1.83;71.65
75420;BME280;63998;52.488;13.428;2022-11-21T07:30:29;99950.19;;;1.89;72.57
75420;BME280;63998;52.488;13.428;2022-11-21T07:32:59;99952.47;;;1.76;72.17
75420;BME280;63998;52.488;13.428;2022-11-21T07:35:25;99954.06;;;1.71;71.92
75420;BME280;63998;52.488;13.428;2022-11-21T07:37:53;99947.13;;;1.67;72.50
75420;BME280;63998;52.488;13.428;2022-11-21T07:40:19;99955.72;;;1.69;72.33
75420;BME280;63998;52.488;13.428;2022-11-21T07:42:45;99960.75;;;1.66;71.95
75420;BME280;63998;52.488;13.428;2022-11-21T07:45:14;99963.22;;;1.63;72.41
75420;BME280;63998;52.488;13.428;2022-11-21T07:47:40;99970.91;;;1.63;72.74
75420;BME280;63998;52.488;13.428;2022-11-21T07:50:07;99963.13;;;1.59;72.28
75420;BME280;63998;52.488;13.428;2022-11-21T07:52:35;99963.72;;;1.50;72.26
75420;BME280;63998;52.488;13.428;2022-11-21T07:55:01;99969.56;;;1.44;72.16
75420;BME280;63998;52.488;13.428;2022-11-21T07:57:27;99970.22;;;1.36;72.12
75420;BME280;63998;52.488;13.428;2022-11-21T07:59:53;99973.31;;;1.26;72.57
75420;BME280;63998;52.488;13.428;2022-11-21T08:02:20;99973.41;;;1.29;72.63
75420;BME280;63998;52.488;13.428;2022-11-21T08:04:46;99977.53;;;1.24;72.75
75420;BME280;63998;52.488;13.428;2022-11-21T08:07:12;99975.06;;;1.27;73.26
75420;BME280;63998;52.488;13.428;2022-11-21T08:09:38;99980.28;;;1.30;73.06
75420;BME280;63998;52.488;13.428;2022-11-21T08:12:03;99978.53;;;1.29;74.05
75420;BME280;63998;52.488;13.428;2022-11-21T08:14:29;99987.69;;;1.21;73.13
75420;BME280;63998;52.488;13.428;2022-11-21T08:16:54;99985.88;;;1.17;73.12
75420;BME280;63998;52.488;13.428;2022-11-21T08:19:21;99984.88;;;1.12;73.98
75420;BME280;63998;52.488;13.428;2022-11-21T08:21:47;99986.88;;;1.22;74.13
75420;BME280;63998;52.488;13.428;2022-11-21T08:24:12;99986.69;;;1.16;73.82
75420;BME280;63998;52.488;13.428;2022-11-21T08:26:41;99983.31;;;1.17;74.03
75420;BME280;63998;52.488;13.428;2022-11-21T08:29:06;99992.53;;;1.10;73.79
75420;BME280;63998;52.488;13.428;2022-11-21T08:31:31;99993.94;;;0.99;73.53
75420;BME280;63998;52.488;13.428;2022-11-21T08:33:57;99999.97;;;1.02;74.16
75420;BME280;63998;52.488;13.428;2022-11-21T08:36:22;100002.28;;;0.93;73.86
75420;BME280;63998;52.488;13.428;2022-11-21T08:38:50;100004.63;;;0.87;74.10
75420;BME280;63998;52.488;13.428;2022-11-21T08:41:18;100012.72;;;0.71;74.48
75420;BME280;63998;52.488;13.428;2022-11-21T08:44:04;100014.34;;;0.69;74.56
75420;BME280;63998;52.488;13.428;2022-11-21T08:46:29;100018.75;;;0.73;75.25
75420;BME280;63998;52.488;13.428;2022-11-21T08:48:57;100017.81;;;0.71;74.44
75420;BME280;63998;52.488;13.428;2022-11-21T08:51:25;100025.53;;;0.73;75.06
75420;BME280;63998;52.488;13.428;2022-11-21T08:53:50;100023.81;;;0.71;74.67
75420;BME280;63998;52.488;13.428;2022-11-21T08:56:15;100025.78;;;0.82;75.25
75420;BME280;63998;52.488;13.428;2022-11-21T08:58:41;100024.66;;;0.72;74.94
75420;BME280;63998;52.488;13.428;2022-11-21T09:01:06;100030.59;;;0.71;74.71
75420;BME280;63998;52.488;13.428;2022-11-21T09:03:32;100031.06;;;0.58;74.51
75420;BME280;63998;52.488;13.428;2022-11-21T09:05:59;100029.22;;;0.54;74.98
75420;BME280;63998;52.488;13.428;2022-11-21T09:08:25;100032.53;;;0.51;75.72
75420;BME280;63998;52.488;13.428;2022-11-21T09:10:52;100035.97;;;0.52;76.18
75420;BME280;63998;52.488;13.428;2022-11-21T09:13:20;100035.78;;;0.46;75.66
75420;BME280;63998;52.488;13.428;2022-11-21T09:15:48;100033.13;;;0.43;75.66
75420;BME280;63998;52.488;13.428;2022-11-21T09:18:33;100034.66;;;0.36;76.26
75420;BME280;63998;52.488;13.428;2022-11-21T09:21:01;100040.22;;;0.24;75.92
75420;BME280;63998;52.488;13.428;2022-11-21T09:23:28;100044.56;;;0.00;76.13
75420;BME280;63998;52.488;13.428;2022-11-21T09:25:59;100040.84;;;0.17;77.02
75420;BME280;63998;52.488;13.428;2022-11-21T09:28:32;100046.19;;;0.25;76.96
75420;BME280;63998;52.488;13.428;2022-11-21T09:30:57;100047.41;;;0.36;77.11
75420;BME280;63998;52.488;13.428;2022-11-21T09:33:22;100044.06;;;0.39;76.41
75420;BME280;63998;52.488;13.428;2022-11-21T09:35:48;100047.53;;;0.41;76.63
75420;BME280;63998;52.488;13.428;2022-11-21T09:38:13;100050.25;;;0.18;75.72
75420;BME280;63998;52.488;13.428;2022-11-21T09:40:45;100054.38;;;0.15;76.39
75420;BME280;63998;52.488;13.428;2022-11-21T09:45:51;100060.63;;;-0.03;76.41
75420;BME280;63998;52.488;13.428;2022-11-21T09:48:26;100059.44;;;-0.12;77.02
75420;BME280;63998;52.488;13.428;2022-11-21T09:51:01;100047.91;;;-0.01;77.37
75420;BME280;63998;52.488;13.428;2022-11-21T09:53:35;100056.47;;;0.01;77.00
75420;BME280;63998;52.488;13.428;2022-11-21T09:56:15;100053.59;;;0.17;77.43
75420;BME280;63998;52.488;13.428;2022-11-21T10:01:16;100051.00;;;0.43;77.33
75420;BME280;63998;52.488;13.428;2022-11-21T10:03:46;100064.50;;;0.39;76.47
75420;BME280;63998;52.488;13.428;2022-11-21T10:06:26;100058.81;;;0.47;76.09
75420;BME280;63998;52.488;13.428;2022-11-21T10:08:54;100064.59;;;0.42;75.79
75420;BME280;63998;52.488;13.428;2022-11-21T10:25:38;100084.88;;;0.10;76.23
75420;BME280;63998;52.488;13.428;2022-11-21T10:28:28;100083.25;;;0.14;75.76
75420;BME280;63998;52.488;13.428;2022-11-21T10:30:58;100084.88;;;-0.15;75.45
75420;BME280;63998;52.488;13.428;2022-11-21T10:33:29;100090.28;;;-0.06;75.46
75420;BME280;63998;52.488;13.428;2022-11-21T10:36:04;100106.34;;;-0.80;76.58
75420;BME280;63998;52.488;13.428;2022-11-21T10:38:37;100108.91;;;-1.25;77.89
75420;BME280;63998;52.488;13.428;2022-11-21T10:41:17;100109.94;;;-1.42;79.22
75420;BME280;63998;52.488;13.428;2022-11-21T10:43:55;100105.19;;;-1.33;79.84
75420;BME280;63998;52.488;13.428;2022-11-21T10:46:58;100110.34;;;-1.31;80.39
75420;BME280;63998;52.488;13.428;2022-11-21T10:49:31;100105.31;;;-1.08;80.38
75420;BME280;63998;52.488;13.428;2022-11-21T10:54:31;100101.59;;;-0.71;79.35
75420;BME280;63998;52.488;13.428;2022-11-21T10:57:15;100111.78;;;-0.71;78.45
75420;BME280;63998;52.488;13.428;2022-11-21T10:59:55;100109.13;;;-0.96;78.20
75420;BME280;63998;52.488;13.428;2022-11-21T11:02:24;100115.38;;;-1.11;78.47
75420;BME280;63998;52.488;13.428;2022-11-21T11:07:41;100113.78;;;-1.09;78.76
75420;BME280;63998;52.488;13.428;2022-11-21T11:10:23;100120.47;;;-1.11;78.41
75420;BME280;63998;52.488;13.428;2022-11-21T11:12:49;100111.63;;;-1.20;78.59
75420;BME280;63998;52.488;13.428;2022-11-21T11:15:36;100122.13;;;-1.13;78.47
75420;BME280;63998;52.488;13.428;2022-11-21T11:18:05;100121.81;;;-0.98;78.70
75420;BME280;63998;52.488;13.428;2022-11-21T11:20:37;100114.59;;;-0.87;78.58
75420;BME280;63998;52.488;13.428;2022-11-21T11:25:49;100124.16;;;-0.58;77.90
75420;BME280;63998;52.488;13.428;2022-11-21T11:28:17;100123.75;;;-0.46;77.78
75420;BME280;63998;52.488;13.428;2022-11-21T11:30:49;100114.97;;;-0.30;77.60
75420;BME280;63998;52.488;13.428;2022-11-21T11:36:05;100117.22;;;-0.14;77.46
75420;BME280;63998;52.488;13.428;2022-11-21T11:38:32;100111.78;;;-0.23;76.69
75420;BME280;63998;52.488;13.428;2022-11-21T11:41:00;100111.78;;;-0.23;76.53
75420;BME280;63998;52.488;13.428;2022-11-21T11:43:39;100120.16;;;-0.75;76.58
75420;BME280;63998;52.488;13.428;2022-11-21T11:49:19;100120.59;;;-0.63;77.86
75420;BME280;63998;52.488;13.428;2022-11-21T11:51:55;100121.97;;;-0.71;78.18
75420;BME280;63998;52.488;13.428;2022-11-21T11:54:29;100117.41;;;-0.80;77.83
75420;BME280;63998;52.488;13.428;2022-11-21T11:56:59;100115.38;;;-0.66;78.62
75420;BME280;63998;52.488;13.428;2022-11-21T11:59:37;100107.88;;;-0.61;77.20
75420;BME280;63998;52.488;13.428;2022-11-21T12:02:13;100115.38;;;-0.66;76.55
75420;BME280;63998;52.488;13.428;2022-11-21T12:04:47;100109.41;;;-0.66;76.63
75420;BME280;63998;52.488;13.428;2022-11-21T12:07:30;100108.66;;;-0.64;76.97
75420;BME280;63998;52.488;13.428;2022-11-21T12:10:19;100116.75;;;-0.74;76.79
75420;BME280;63998;52.488;13.428;2022-11-21T12:12:53;100118.81;;;-0.88;76.60
75420;BME280;63998;52.488;13.428;2022-11-21T12:15:41;100130.09;;;-0.81;77.24
75420;BME280;63998;52.488;13.428;2022-11-21T12:23:37;100123.53;;;-0.28;76.95
75420;BME280;63998;52.488;13.428;2022-11-21T12:34:16;100114.50;;;-0.66;76.06
75420;BME280;63998;52.488;13.428;2022-11-21T12:39:59;100114.16;;;-0.99;76.77
75420;BME280;63998;52.488;13.428;2022-11-21T12:45:38;100101.94;;;-0.84;77.87
75420;BME280;63998;52.488;13.428;2022-11-21T12:48:19;100103.03;;;-1.01;77.90
75420;BME280;63998;52.488;13.428;2022-11-21T12:59:32;100103.97;;;-0.98;78.11
75420;BME280;63998;52.488;13.428;2022-11-21T13:02:16;100098.59;;;-1.05;78.16
75420;BME280;63998;52.488;13.428;2022-11-21T13:04:47;100093.97;;;-0.93;78.37
75420;BME280;63998;52.488;13.428;2022-11-21T13:07:18;100102.66;;;-1.11;78.56
75420;BME280;63998;52.488;13.428;2022-11-21T13:09:47;100100.88;;;-1.13;78.79
75420;BME280;63998;52.488;13.428;2022-11-21T13:12:38;100094.25;;;-1.08;79.35
75420;BME280;63998;52.488;13.428;2022-11-21T13:15:15;100081.19;;;-0.71;80.18
75420;BME280;63998;52.488;13.428;2022-11-21T13:18:04;100087.28;;;-0.44;80.71
75420;BME280;63998;52.488;13.428;2022-11-21T13:20:38;100083.25;;;-0.37;79.38
75420;BME280;63998;52.488;13.428;2022-11-21T13:23:39;100081.22;;;-0.22;79.61
75420;BME280;63998;52.488;13.428;2022-11-21T13:28:51;100087.81;;;-0.28;77.01
75420;BME280;63998;52.488;13.428;2022-11-21T13:31:34;100084.72;;;-0.44;77.28
75420;BME280;63998;52.488;13.428;2022-11-21T13:34:01;100077.72;;;-0.49;77.25
75420;BME280;63998;52.488;13.428;2022-11-21T13:49:45;100078.72;;;0.05;76.72
75420;BME280;63998;52.488;13.428;2022-11-21T13:58:17;100057.66;;;-0.15;76.41
75420;BME280;63998;52.488;13.428;2022-11-21T14:04:02;100068.94;;;0.17;77.67
75420;BME280;63998;52.488;13.428;2022-11-21T14:06:32;100065.78;;;0.24;77.26
75420;BME280;63998;52.488;13.428;2022-11-21T14:11:52;100053.03;;;0.26;76.33
75420;BME280;63998;52.488;13.428;2022-11-21T14:14:30;100050.84;;;0.37;76.40
75420;BME280;63998;52.488;13.428;2022-11-21T14:19:45;100050.41;;;0.51;76.00
75420;BME280;63998;52.488;13.428;2022-11-21T14:22:32;100053.13;;;0.56;75.18
75420;BME280;63998;52.488;13.428;2022-11-21T14:25:02;100047.41;;;0.64;75.65
75420;BME280;63998;52.488;13.428;2022-11-21T14:27:31;100044.75;;;0.60;74.81
75420;BME280;63998;52.488;13.428;2022-11-21T14:29:57;100034.97;;;0.47;73.37
75420;BME280;63998;52.488;13.428;2022-11-21T14:32:27;100032.09;;;0.38;73.61
75420;BME280;63998;52.488;13.428;2022-11-21T14:35:07;100037.84;;;0.30;73.87
75420;BME280;63998;52.488;13.428;2022-11-21T14:37:33;100031.41;;;0.42;75.00
75420;BME280;63998;52.488;13.428;2022-11-21T14:39:58;100034.16;;;0.48;75.32
75420;BME280;63998;52.488;13.428;2022-11-21T14:42:33;100027.09;;;0.41;74.73
75420;BME280;63998;52.488;13.428;2022-11-21T14:45:07;100021.88;;;0.38;74.90
75420;BME280;63998;52.488;13.428;2022-11-21T14:47:33;100029.63;;;0.12;73.85
75420;BME280;63998;52.488;13.428;2022-11-21T14:49:58;100026.22;;;0.13;74.89